createdAt,value
2022-10-14T00:01:27.214Z,97667.00
2022-10-14T00:03:56.119Z,97674.00
2022-10-14T00:06:28.501Z,97672.00
2022-10-14T00:08:57.644Z,97674.00
2022-10-14T00:11:30.835Z,97672.00
2022-10-14T00:14:03.010Z,97672.00
2022-10-14T00:16:35.413Z,97672.00
2022-10-14T00:19:05.432Z,97674.00
2022-10-14T00:21:35.293Z,97671.00
2022-10-14T00:24:03.370Z,97664.00
2022-10-14T00:26:36.463Z,97661.00
2022-10-14T00:29:08.902Z,97671.00
2022-10-14T00:31:37.102Z,97672.00
2022-10-14T00:34:05.531Z,97673.00
2022-10-14T00:36:34.859Z,97669.00
2022-10-14T00:39:02.946Z,97667.00
2022-10-14T00:41:36.585Z,97667.00
2022-10-14T00:44:28.130Z,97661.00
2022-10-14T00:46:57.858Z,97673.00
2022-10-14T00:49:32.712Z,97666.00
2022-10-14T00:52:05.017Z,97672.00
2022-10-14T00:54:41.715Z,97663.00
2022-10-14T00:57:12.649Z,97668.00
2022-10-14T00:59:42.337Z,97663.00
2022-10-14T01:02:10.628Z,97660.00
2022-10-14T01:04:42.529Z,97662.00
2022-10-14T01:07:29.257Z,97661.00
2022-10-14T01:10:07.532Z,97666.00
2022-10-14T01:12:50.813Z,97664.00
2022-10-14T01:15:30.026Z,97656.00
2022-10-14T01:18:16.423Z,97654.00
2022-10-14T01:21:14.006Z,97661.00
2022-10-14T01:24:22.780Z,97663.00
2022-10-14T01:27:30.029Z,97651.00
2022-10-14T01:30:13.073Z,97650.00
2022-10-14T01:32:56.517Z,97647.00
2022-10-14T01:35:39.242Z,97644.00
2022-10-14T01:38:15.359Z,97647.00
2022-10-14T01:40:53.461Z,97654.00
2022-10-14T01:43:26.344Z,97654.00
2022-10-14T01:45:58.898Z,97653.00
2022-10-14T01:48:34.631Z,97650.00
2022-10-14T01:51:10.766Z,97653.00
2022-10-14T01:53:44.773Z,97643.00
2022-10-14T01:56:15.263Z,97656.00
2022-10-14T01:58:46.019Z,97658.00
2022-10-14T02:01:16.075Z,97654.00
2022-10-14T02:03:47.556Z,97641.00
2022-10-14T02:06:23.899Z,97646.00
2022-10-14T02:09:06.226Z,97651.00
2022-10-14T02:11:54.060Z,97652.00
2022-10-14T02:14:38.913Z,97638.00
2022-10-14T02:17:18.418Z,97646.00
2022-10-14T02:19:56.327Z,97638.00
2022-10-14T02:22:32.400Z,97645.00
2022-10-14T02:25:09.313Z,97633.00
2022-10-14T02:27:40.753Z,97627.00
2022-10-14T02:30:12.747Z,97626.00
2022-10-14T02:32:45.176Z,97621.00
2022-10-14T02:35:18.241Z,97625.00
2022-10-14T02:37:49.430Z,97626.00
2022-10-14T02:40:25.942Z,97624.00
2022-10-14T02:42:55.881Z,97635.00
2022-10-14T02:45:26.967Z,97630.00
2022-10-14T02:47:56.489Z,97624.00
2022-10-14T02:50:24.618Z,97607.00
2022-10-14T02:52:53.448Z,97604.00
2022-10-14T02:55:23.054Z,97609.00
2022-10-14T02:57:51.313Z,97606.00
2022-10-14T03:00:21.000Z,97610.00
2022-10-14T03:02:49.140Z,97594.00
2022-10-14T03:05:20.942Z,97601.00
2022-10-14T03:07:49.150Z,97602.00
2022-10-14T03:10:19.742Z,97605.00
2022-10-14T03:12:48.555Z,97604.00
2022-10-14T03:15:26.232Z,97602.00
2022-10-14T03:17:54.723Z,97595.00
2022-10-14T03:20:30.117Z,97592.00
2022-10-14T03:22:59.297Z,97597.00
2022-10-14T03:25:27.935Z,97593.00
2022-10-14T03:28:22.300Z,97597.00
2022-10-14T03:31:07.636Z,97609.00
2022-10-14T03:33:48.560Z,97610.00
2022-10-14T03:36:21.035Z,97608.00
2022-10-14T03:38:53.984Z,97598.00
2022-10-14T03:41:42.380Z,97601.00
2022-10-14T03:44:12.575Z,97594.00
2022-10-14T03:46:46.640Z,97598.00
2022-10-14T03:49:14.917Z,97603.00
2022-10-14T03:51:44.648Z,97600.00
2022-10-14T03:54:20.082Z,97604.00
2022-10-14T03:56:48.344Z,97606.00
2022-10-14T03:59:18.850Z,97591.00
2022-10-14T04:01:51.624Z,97586.00
2022-10-14T04:04:25.908Z,97590.00
2022-10-14T04:06:55.423Z,97592.00
2022-10-14T04:09:23.892Z,97589.00
2022-10-14T04:11:52.272Z,97586.00
2022-10-14T04:14:49.685Z,97579.00
2022-10-14T04:17:18.184Z,97581.00
2022-10-14T04:19:47.200Z,97579.00
2022-10-14T04:22:20.807Z,97569.00
2022-10-14T04:24:53.614Z,97572.00
2022-10-14T04:27:22.100Z,97573.00
2022-10-14T04:29:59.247Z,97562.00
2022-10-14T04:32:33.447Z,97562.00
2022-10-14T04:35:01.979Z,97567.00
2022-10-14T04:37:33.082Z,97561.00
2022-10-14T04:40:25.570Z,97565.00
2022-10-14T04:42:58.482Z,97566.00
2022-10-14T04:45:35.313Z,97572.00
2022-10-14T04:48:05.480Z,97565.00
2022-10-14T04:50:39.230Z,97562.00
2022-10-14T04:53:37.839Z,97570.00
2022-10-14T04:56:20.767Z,97550.00
2022-10-14T04:58:58.113Z,97565.00
2022-10-14T05:01:39.147Z,97547.00
2022-10-14T05:04:07.626Z,97541.00
2022-10-14T05:06:40.086Z,97534.00
2022-10-14T05:09:12.002Z,97553.00
2022-10-14T05:11:40.461Z,97550.00
2022-10-14T05:14:08.779Z,97543.00
2022-10-14T05:16:38.807Z,97550.00
2022-10-14T05:19:08.421Z,97547.00
2022-10-14T05:21:43.727Z,97545.00
2022-10-14T05:24:18.870Z,97548.00
2022-10-14T05:26:48.748Z,97541.00
2022-10-14T05:29:17.376Z,97550.00
2022-10-14T05:31:45.876Z,97552.00
2022-10-14T05:34:27.736Z,97542.00
2022-10-14T05:36:57.443Z,97543.00
2022-10-14T05:39:28.010Z,97543.00
2022-10-14T05:41:57.441Z,97535.00
2022-10-14T05:44:28.113Z,97547.00
2022-10-14T05:46:56.618Z,97550.00
2022-10-14T05:49:26.374Z,97546.00
2022-10-14T05:51:57.673Z,97547.00
2022-10-14T05:54:27.828Z,97538.00
2022-10-14T05:56:58.504Z,97551.00
2022-10-14T05:59:29.658Z,97542.00
2022-10-14T06:01:58.971Z,97551.00
2022-10-14T06:04:27.644Z,97553.00
2022-10-14T06:06:57.040Z,97553.00
2022-10-14T06:09:25.495Z,97548.00
2022-10-14T06:11:55.636Z,97560.00
2022-10-14T06:14:24.355Z,97558.00
2022-10-14T06:16:53.743Z,97566.00
2022-10-14T06:19:22.189Z,97555.00
2022-10-14T06:21:50.294Z,97556.00
2022-10-14T06:24:18.545Z,97549.00
2022-10-14T06:26:48.323Z,97560.00
2022-10-14T06:29:18.590Z,97561.00
2022-10-14T06:31:46.678Z,97555.00
2022-10-14T06:34:14.786Z,97547.00
2022-10-14T06:36:42.883Z,97551.00
2022-10-14T06:39:11.247Z,97546.00
2022-10-14T06:41:39.396Z,97536.00
2022-10-14T06:44:10.018Z,97539.00
2022-10-14T06:46:39.467Z,97549.00
2022-10-14T06:49:07.587Z,97558.00
2022-10-14T06:51:35.811Z,97548.00
2022-10-14T06:54:04.207Z,97562.00
2022-10-14T06:56:33.443Z,97559.00
2022-10-14T06:59:02.208Z,97546.00
2022-10-14T07:01:30.412Z,97546.00
2022-10-14T07:03:59.904Z,97544.00
2022-10-14T07:06:28.015Z,97541.00
2022-10-14T07:08:56.143Z,97544.00
2022-10-14T07:11:24.205Z,97539.00
2022-10-14T07:13:52.342Z,97545.00
2022-10-14T07:16:20.461Z,97543.00
2022-10-14T07:18:49.476Z,97546.00
2022-10-14T07:21:19.126Z,97547.00
2022-10-14T07:23:47.610Z,97537.00
2022-10-14T07:26:15.865Z,97543.00
2022-10-14T07:28:44.185Z,97538.00
2022-10-14T07:31:14.192Z,97529.00
2022-10-14T07:33:42.540Z,97540.00
2022-10-14T07:36:16.047Z,97546.00
2022-10-14T07:38:48.202Z,97536.00
2022-10-14T07:41:20.439Z,97535.00
2022-10-14T07:43:51.733Z,97543.00
2022-10-14T07:46:29.224Z,97548.00
2022-10-14T07:48:58.143Z,97558.00
2022-10-14T07:51:27.232Z,97563.00
2022-10-14T07:53:59.673Z,97561.00
2022-10-14T07:56:28.888Z,97571.00
2022-10-14T07:58:58.943Z,97566.00
2022-10-14T08:01:27.093Z,97567.00
2022-10-14T08:03:55.261Z,97558.00
2022-10-14T08:06:23.821Z,97563.00
2022-10-14T08:08:52.092Z,97559.00
2022-10-14T08:11:24.920Z,97555.00
2022-10-14T08:13:54.727Z,97558.00
2022-10-14T08:16:25.204Z,97567.00
2022-10-14T08:18:54.405Z,97550.00
2022-10-14T08:21:23.190Z,97563.00
2022-10-14T08:23:51.518Z,97557.00
2022-10-14T08:26:27.847Z,97549.00
2022-10-14T08:28:56.177Z,97563.00
2022-10-14T08:31:25.162Z,97548.00
2022-10-14T08:33:53.362Z,97556.00
2022-10-14T08:36:22.700Z,97552.00
2022-10-14T08:38:53.918Z,97558.00
2022-10-14T08:41:43.220Z,97548.00
2022-10-14T08:44:20.142Z,97552.00
2022-10-14T08:46:55.015Z,97539.00
2022-10-14T08:49:31.375Z,97543.00
2022-10-14T08:52:07.602Z,97550.00
2022-10-14T08:54:41.404Z,97547.00
2022-10-14T08:57:19.062Z,97546.00
2022-10-14T08:59:47.924Z,97542.00
2022-10-14T09:02:36.043Z,97544.00
2022-10-14T09:05:06.083Z,97543.00
2022-10-14T09:07:38.053Z,97546.00
2022-10-14T09:10:13.402Z,97544.00
2022-10-14T09:12:44.271Z,97545.00
2022-10-14T09:15:27.301Z,97532.00
2022-10-14T09:18:06.768Z,97529.00
2022-10-14T09:20:34.950Z,97543.00
2022-10-14T09:23:16.873Z,97536.00
2022-10-14T09:25:57.363Z,97524.00
2022-10-14T09:28:38.226Z,97529.00
2022-10-14T09:31:11.357Z,97536.00
2022-10-14T09:33:42.403Z,97532.00
2022-10-14T09:36:18.255Z,97528.00
2022-10-14T09:38:51.536Z,97527.00
2022-10-14T09:41:25.778Z,97530.00
2022-10-14T09:44:25.725Z,97519.00
2022-10-14T09:46:59.211Z,97519.00
2022-10-14T09:49:39.007Z,97519.00
2022-10-14T09:52:08.324Z,97521.00
2022-10-14T09:54:36.761Z,97518.00
2022-10-14T09:57:08.366Z,97533.00
2022-10-14T09:59:54.049Z,97522.00
2022-10-14T10:02:26.620Z,97522.00
2022-10-14T10:04:54.850Z,97521.00
2022-10-14T10:07:31.781Z,97511.00
2022-10-14T10:10:04.193Z,97509.00
2022-10-14T10:12:35.135Z,97510.00
2022-10-14T10:15:08.184Z,97497.00
2022-10-14T10:17:41.433Z,97510.00
2022-10-14T10:20:28.264Z,97494.00
2022-10-14T10:22:57.411Z,97498.00
2022-10-14T10:25:28.957Z,97489.00
2022-10-14T10:28:00.727Z,97496.00
2022-10-14T10:30:37.039Z,97494.00
2022-10-14T10:33:23.014Z,97484.00
2022-10-14T10:36:13.270Z,97482.00
2022-10-14T10:38:59.758Z,97481.00
2022-10-14T10:42:04.101Z,97459.00
2022-10-14T10:45:05.236Z,97457.00
2022-10-14T10:47:45.541Z,97461.00
2022-10-14T10:50:44.718Z,97454.00
2022-10-14T10:53:40.097Z,97444.00
2022-10-14T10:56:23.575Z,97444.00
2022-10-14T10:59:10.333Z,97449.00
2022-10-14T11:01:52.948Z,97450.00
2022-10-14T11:04:32.037Z,97442.00
2022-10-14T11:07:33.422Z,97425.00
2022-10-14T11:10:32.938Z,97430.00
2022-10-14T11:13:13.012Z,97430.00
2022-10-14T11:15:51.396Z,97417.00
2022-10-14T11:18:33.545Z,97402.00
2022-10-14T11:21:17.087Z,97399.00
2022-10-14T11:23:59.610Z,97405.00
2022-10-14T11:26:48.192Z,97405.00
2022-10-14T11:29:37.173Z,97393.00
2022-10-14T11:32:19.850Z,97397.00
2022-10-14T11:35:10.890Z,97385.00
2022-10-14T11:37:55.408Z,97390.00
2022-10-14T11:40:29.215Z,97395.00
2022-10-14T11:43:14.870Z,97392.00
2022-10-14T11:45:53.039Z,97387.00
2022-10-14T11:48:30.933Z,97389.00
2022-10-14T11:51:13.483Z,97389.00
2022-10-14T11:54:03.803Z,97382.00
2022-10-14T11:56:47.111Z,97386.00
2022-10-14T11:59:38.645Z,97370.00
2022-10-14T12:02:22.177Z,97375.00
2022-10-14T12:04:58.576Z,97367.00
2022-10-14T12:07:38.614Z,97366.00
2022-10-14T12:10:21.552Z,97367.00
2022-10-14T12:12:52.278Z,97362.00
2022-10-14T12:15:25.019Z,97352.00
2022-10-14T12:17:58.509Z,97358.00
2022-10-14T12:20:44.629Z,97352.00
2022-10-14T12:23:25.117Z,97360.00
2022-10-14T12:26:04.626Z,97352.00
2022-10-14T12:28:39.013Z,97348.00
2022-10-14T12:31:36.759Z,97340.00
2022-10-14T12:34:32.175Z,97340.00
2022-10-14T12:37:01.299Z,97328.00
2022-10-14T12:39:35.760Z,97336.00
2022-10-14T12:42:12.193Z,97337.00
2022-10-14T12:44:48.608Z,97345.00
2022-10-14T12:47:21.822Z,97325.00
2022-10-14T12:49:54.513Z,97323.00
2022-10-14T12:52:29.097Z,97327.00
2022-10-14T12:54:59.983Z,97333.00
2022-10-14T12:57:36.235Z,97328.00
2022-10-14T13:00:29.990Z,97332.00
2022-10-14T13:03:02.829Z,97326.00
2022-10-14T13:05:37.042Z,97320.00
2022-10-14T13:08:26.728Z,97305.00
2022-10-14T13:11:11.094Z,97311.00
2022-10-14T13:14:03.101Z,97301.00
2022-10-14T13:16:58.634Z,97309.00
2022-10-14T13:19:46.480Z,97298.00
2022-10-14T13:22:40.531Z,97292.00
2022-10-14T13:25:20.015Z,97295.00
2022-10-14T13:28:15.355Z,97291.00
2022-10-14T13:31:00.133Z,97269.00
2022-10-14T13:33:40.789Z,97271.00
2022-10-14T13:36:21.969Z,97268.00
2022-10-14T13:39:00.943Z,97272.00
2022-10-14T13:41:31.432Z,97254.00
2022-10-14T13:44:02.816Z,97264.00
2022-10-14T13:46:39.646Z,97255.00
2022-10-14T13:51:53.900Z,97255.00
2022-10-14T13:54:24.368Z,97272.00
2022-10-14T14:02:50.360Z,97260.00
2022-10-14T14:11:17.123Z,97261.00
2022-10-14T14:13:59.250Z,97254.00
2022-10-14T14:16:33.503Z,97271.00
2022-10-14T14:19:08.773Z,97257.00
2022-10-14T14:21:38.855Z,97258.00
2022-10-14T14:24:19.051Z,97254.00
2022-10-14T14:26:55.870Z,97260.00
2022-10-14T14:29:31.923Z,97256.00
2022-10-14T14:32:07.124Z,97259.00
2022-10-14T14:34:40.417Z,97245.00
2022-10-14T14:37:43.858Z,97235.00
2022-10-14T14:40:20.232Z,97233.00
2022-10-14T14:42:53.647Z,97220.00
2022-10-14T14:45:26.726Z,97224.00
2022-10-14T14:47:57.805Z,97217.00
2022-10-14T14:50:34.804Z,97225.00
2022-10-14T14:53:08.485Z,97220.00
2022-10-14T14:55:47.711Z,97221.00
2022-10-14T14:58:25.786Z,97217.00
2022-10-14T15:00:55.295Z,97221.00
2022-10-14T15:03:27.005Z,97221.00
2022-10-14T15:06:01.227Z,97212.00
2022-10-14T15:08:33.346Z,97205.00
2022-10-14T15:11:02.557Z,97205.00
2022-10-14T15:13:48.995Z,97206.00
2022-10-14T15:16:36.828Z,97198.00
2022-10-14T15:19:35.644Z,97184.00
2022-10-14T15:22:29.570Z,97189.00
2022-10-14T15:25:11.889Z,97187.00
2022-10-14T15:27:49.647Z,97190.00
2022-10-14T15:30:24.553Z,97188.00
2022-10-14T15:32:55.432Z,97182.00
2022-10-14T15:35:25.036Z,97181.00
2022-10-14T15:37:55.009Z,97179.00
2022-10-14T15:40:28.613Z,97186.00
2022-10-14T15:42:57.350Z,97178.00
2022-10-14T15:45:26.465Z,97179.00
2022-10-14T15:48:02.659Z,97178.00
2022-10-14T15:50:30.867Z,97170.00
2022-10-14T15:53:00.398Z,97168.00
2022-10-14T15:55:35.195Z,97170.00
2022-10-14T15:58:05.133Z,97170.00
2022-10-14T16:00:34.757Z,97179.00
2022-10-14T16:03:05.973Z,97168.00
2022-10-14T16:05:34.093Z,97156.00
2022-10-14T16:08:04.373Z,97159.00
2022-10-14T16:10:34.367Z,97167.00
2022-10-14T16:13:03.115Z,97169.00
2022-10-14T16:15:37.006Z,97173.00
2022-10-14T16:18:05.438Z,97177.00
2022-10-14T16:20:33.734Z,97174.00
2022-10-14T16:23:04.494Z,97173.00
2022-10-14T16:25:39.288Z,97167.00
2022-10-14T16:28:10.206Z,97164.00
2022-10-14T16:30:41.910Z,97154.00
2022-10-14T16:35:45.536Z,97164.00
2022-10-14T16:38:15.069Z,97170.00
2022-10-14T16:40:43.249Z,97173.00
2022-10-14T16:43:14.437Z,97167.00
2022-10-14T16:45:42.517Z,97173.00
2022-10-14T16:48:10.912Z,97168.00
2022-10-14T16:50:39.037Z,97168.00
2022-10-14T16:53:24.777Z,97165.00
2022-10-14T16:55:57.968Z,97167.00
2022-10-14T16:58:27.850Z,97170.00
2022-10-14T17:00:56.036Z,97167.00
2022-10-14T17:03:24.149Z,97178.00
2022-10-14T17:05:59.052Z,97173.00
2022-10-14T17:08:27.190Z,97172.00
2022-10-14T17:11:00.038Z,97164.00
2022-10-14T17:13:28.208Z,97183.00
2022-10-14T17:16:01.900Z,97173.00
2022-10-14T17:18:34.508Z,97166.00
2022-10-14T17:21:07.001Z,97178.00
2022-10-14T17:23:36.079Z,97170.00
2022-10-14T17:26:06.614Z,97176.00
2022-10-14T17:28:35.177Z,97173.00
2022-10-14T17:31:03.666Z,97164.00
2022-10-14T17:33:31.925Z,97177.00
2022-10-14T17:36:02.011Z,97169.00
2022-10-14T17:38:31.703Z,97179.00
2022-10-14T17:41:03.602Z,97166.00
2022-10-14T17:43:35.382Z,97177.00
2022-10-14T17:46:04.386Z,97182.00
2022-10-14T17:48:33.891Z,97171.00
2022-10-14T17:51:05.802Z,97165.00
2022-10-14T17:53:33.940Z,97170.00
2022-10-14T17:56:05.295Z,97165.00
2022-10-14T17:58:34.793Z,97182.00
2022-10-14T18:01:08.006Z,97171.00
2022-10-14T18:03:36.701Z,97166.00
2022-10-14T18:06:13.468Z,97172.00
2022-10-14T18:08:43.045Z,97170.00
2022-10-14T18:11:13.022Z,97166.00
2022-10-14T18:13:42.685Z,97172.00
2022-10-14T18:16:14.270Z,97164.00
2022-10-14T18:18:43.408Z,97156.00
2022-10-14T18:21:11.969Z,97169.00
2022-10-14T18:23:41.727Z,97158.00
2022-10-14T18:26:13.722Z,97157.00
2022-10-14T18:28:46.710Z,97159.00
2022-10-14T18:31:18.652Z,97164.00
2022-10-14T18:33:48.491Z,97164.00
2022-10-14T18:36:22.245Z,97156.00
2022-10-14T18:38:55.458Z,97163.00
2022-10-14T18:41:28.000Z,97159.00
2022-10-14T18:43:58.650Z,97158.00
2022-10-14T18:46:29.984Z,97160.00
2022-10-14T18:49:00.506Z,97151.00
2022-10-14T18:51:31.709Z,97157.00
2022-10-14T18:54:03.079Z,97150.00
2022-10-14T18:56:35.200Z,97158.00
2022-10-14T18:59:08.946Z,97156.00
2022-10-14T19:01:39.189Z,97151.00
2022-10-14T19:04:09.778Z,97156.00
2022-10-14T19:06:37.962Z,97152.00
2022-10-14T19:09:07.090Z,97148.00
2022-10-14T19:11:36.247Z,97135.00
2022-10-14T19:14:06.512Z,97145.00
2022-10-14T19:16:38.143Z,97141.00
2022-10-14T19:19:11.580Z,97145.00
2022-10-14T19:21:40.934Z,97144.00
2022-10-14T19:24:10.522Z,97142.00
2022-10-14T19:26:41.816Z,97131.00
2022-10-14T19:29:15.306Z,97129.00
2022-10-14T19:31:44.858Z,97143.00
2022-10-14T19:34:15.793Z,97136.00
2022-10-14T19:36:45.316Z,97139.00
2022-10-14T19:39:18.761Z,97142.00
2022-10-14T19:41:47.421Z,97138.00
2022-10-14T19:44:18.318Z,97137.00
2022-10-14T19:46:46.920Z,97128.00
2022-10-14T19:49:16.585Z,97138.00
2022-10-14T19:51:44.782Z,97132.00
2022-10-14T19:54:14.686Z,97130.00
2022-10-14T19:56:43.277Z,97123.00
2022-10-14T19:59:13.438Z,97117.00
2022-10-14T20:01:43.494Z,97098.00
2022-10-14T20:04:12.098Z,97115.00
2022-10-14T20:06:41.913Z,97117.00
2022-10-14T20:09:13.570Z,97100.00
2022-10-14T20:11:41.978Z,97095.00
2022-10-14T20:14:10.143Z,97092.00
2022-10-14T20:16:38.255Z,97087.00
2022-10-14T20:19:07.933Z,97100.00
2022-10-14T20:21:36.056Z,97097.00
2022-10-14T20:24:04.627Z,97103.00
2022-10-14T20:26:32.878Z,97095.00
2022-10-14T20:29:01.032Z,97088.00
2022-10-14T20:31:29.248Z,97078.00
2022-10-14T20:33:57.907Z,97079.00
2022-10-14T20:36:27.413Z,97079.00
2022-10-14T20:38:55.485Z,97077.00
2022-10-14T20:41:26.447Z,97074.00
2022-10-14T20:43:58.423Z,97062.00
2022-10-14T20:46:26.610Z,97058.00
2022-10-14T20:48:55.862Z,97066.00
2022-10-14T20:51:24.691Z,97061.00
2022-10-14T20:54:02.042Z,97048.00
2022-10-14T20:56:34.762Z,97060.00
2022-10-14T20:59:06.079Z,97050.00
2022-10-14T21:01:36.232Z,97073.00
2022-10-14T21:04:07.515Z,97056.00
2022-10-14T21:06:38.569Z,97055.00
2022-10-14T21:09:08.698Z,97049.00
2022-10-14T21:11:36.997Z,97047.00
2022-10-14T21:14:05.124Z,97058.00
2022-10-14T21:16:35.661Z,97054.00
2022-10-14T21:19:07.789Z,97040.00
2022-10-14T21:21:38.519Z,97048.00
2022-10-14T21:24:09.752Z,97054.00
2022-10-14T21:26:37.929Z,97047.00
2022-10-14T21:29:06.332Z,97035.00
2022-10-14T21:31:34.576Z,97034.00
2022-10-14T21:34:06.414Z,97030.00
2022-10-14T21:36:35.675Z,97033.00
2022-10-14T21:39:08.919Z,97033.00
2022-10-14T21:41:38.260Z,97026.00
2022-10-14T21:44:07.522Z,97034.00
2022-10-14T21:46:36.821Z,97035.00
2022-10-14T21:49:05.181Z,97023.00
2022-10-14T21:51:34.004Z,97019.00
2022-10-14T21:54:02.294Z,97023.00
2022-10-14T21:56:32.224Z,97019.00
2022-10-14T21:59:00.428Z,97002.00
2022-10-14T22:01:30.847Z,96988.00
2022-10-14T22:04:03.597Z,97003.00
2022-10-14T22:06:33.585Z,96998.00
2022-10-14T22:09:05.228Z,96999.00
2022-10-14T22:11:38.265Z,96990.00
2022-10-14T22:14:12.283Z,97001.00
2022-10-14T22:16:41.539Z,96986.00
2022-10-14T22:19:11.406Z,96989.00
2022-10-14T22:21:42.269Z,96981.00
2022-10-14T22:24:10.698Z,96975.00
2022-10-14T22:26:41.639Z,96973.00
2022-10-14T22:29:15.123Z,96968.00
2022-10-14T22:31:44.008Z,96968.00
2022-10-14T22:34:15.036Z,96961.00
2022-10-14T22:36:43.902Z,96955.00
2022-10-14T22:39:15.239Z,96968.00
2022-10-14T22:41:44.783Z,96954.00
2022-10-14T22:44:12.903Z,96938.00
2022-10-14T22:46:41.405Z,96946.00
2022-10-14T22:49:09.558Z,96943.00
2022-10-14T22:51:41.195Z,96944.00
2022-10-14T22:54:09.946Z,96937.00
2022-10-14T22:56:38.522Z,96935.00
2022-10-14T22:59:10.767Z,96924.00
2022-10-14T23:01:40.061Z,96925.00
2022-10-14T23:04:10.935Z,96920.00
2022-10-14T23:06:43.554Z,96929.00
2022-10-14T23:09:11.785Z,96919.00
2022-10-14T23:11:40.142Z,96909.00
2022-10-14T23:14:09.808Z,96920.00
2022-10-14T23:16:39.980Z,96928.00
2022-10-14T23:19:08.177Z,96926.00
2022-10-14T23:21:39.201Z,96927.00
2022-10-14T23:24:12.114Z,96923.00
2022-10-14T23:26:40.505Z,96906.00
2022-10-14T23:29:12.557Z,96913.00
2022-10-14T23:31:41.949Z,96918.00
2022-10-14T23:34:14.137Z,96907.00
2022-10-14T23:36:43.016Z,96909.00
2022-10-14T23:39:12.127Z,96905.00
2022-10-14T23:41:40.517Z,96909.00
2022-10-14T23:44:12.612Z,96901.00
2022-10-14T23:46:40.731Z,96886.00
2022-10-14T23:49:24.897Z,96890.00
2022-10-14T23:51:54.192Z,96890.00
2022-10-14T23:54:22.327Z,96881.00
2022-10-14T23:56:50.447Z,96892.00
2022-10-14T23:59:19.916Z,96894.00
